createdAt,value
2023-05-22T00:02:23.232Z,12.09
2023-05-22T00:04:54.930Z,12.10
2023-05-22T00:07:28.373Z,12.08
2023-05-22T00:09:59.264Z,12.09
2023-05-22T00:12:30.046Z,12.09
2023-05-22T00:15:00.973Z,12.08
2023-05-22T00:17:34.850Z,12.07
2023-05-22T00:20:08.568Z,12.06
2023-05-22T00:22:42.701Z,12.02
2023-05-22T00:25:14.861Z,11.99
2023-05-22T00:27:45.565Z,11.97
2023-05-22T00:30:17.206Z,11.94
2023-05-22T00:32:48.106Z,11.90
2023-05-22T00:35:19.812Z,11.89
2023-05-22T00:37:53.173Z,11.88
2023-05-22T00:40:25.131Z,11.86
2023-05-22T00:42:55.962Z,11.86
2023-05-22T00:45:26.808Z,11.86
2023-05-22T00:47:57.678Z,11.84
2023-05-22T00:50:28.750Z,11.83
2023-05-22T00:53:02.124Z,11.81
2023-05-22T00:55:33.047Z,11.79
2023-05-22T00:58:07.967Z,11.77
2023-05-22T01:00:40.679Z,11.76
2023-05-22T01:03:12.666Z,11.73
2023-05-22T01:05:44.840Z,11.70
2023-05-22T01:08:18.255Z,11.66
2023-05-22T01:10:49.437Z,11.63
2023-05-22T01:13:31.783Z,11.59
2023-05-22T01:16:14.014Z,11.56
2023-05-22T01:18:52.733Z,11.53
2023-05-22T01:21:31.535Z,11.49
2023-05-22T01:24:43.434Z,11.46
2023-05-22T01:27:35.519Z,11.43
2023-05-22T01:30:30.831Z,11.38
2023-05-22T01:33:06.931Z,11.35
2023-05-22T01:35:41.263Z,11.30
2023-05-22T01:38:14.128Z,11.29
2023-05-22T01:40:45.562Z,11.25
2023-05-22T01:43:17.524Z,11.21
2023-05-22T01:45:49.446Z,11.20
2023-05-22T01:48:22.889Z,11.17
2023-05-22T01:50:56.420Z,11.16
2023-05-22T01:53:33.311Z,11.15
2023-05-22T01:56:09.564Z,11.14
2023-05-22T01:58:48.590Z,11.11
2023-05-22T02:01:22.681Z,11.11
2023-05-22T02:04:00.232Z,11.11
2023-05-22T02:06:33.737Z,11.10
2023-05-22T02:09:06.231Z,11.09
2023-05-22T02:11:40.741Z,11.07
2023-05-22T02:14:12.537Z,11.06
2023-05-22T02:16:47.224Z,11.04
2023-05-22T02:19:21.020Z,11.02
2023-05-22T02:22:14.024Z,10.99
2023-05-22T02:24:47.184Z,10.98
2023-05-22T02:27:19.802Z,10.97
2023-05-22T02:29:50.912Z,10.96
2023-05-22T02:32:21.737Z,10.94
2023-05-22T02:34:55.133Z,10.93
2023-05-22T02:37:25.979Z,10.89
2023-05-22T02:39:56.888Z,10.86
2023-05-22T02:42:28.699Z,10.84
2023-05-22T02:44:59.526Z,10.82
2023-05-22T02:47:30.337Z,10.80
2023-05-22T02:50:04.159Z,10.78
2023-05-22T02:52:39.673Z,10.77
2023-05-22T02:55:12.189Z,10.75
2023-05-22T02:57:43.125Z,10.72
2023-05-22T03:00:17.351Z,10.69
2023-05-22T03:02:48.356Z,10.66
2023-05-22T03:05:22.676Z,10.64
2023-05-22T03:07:56.308Z,10.63
2023-05-22T03:10:27.457Z,10.59
2023-05-22T03:12:58.170Z,10.58
2023-05-22T03:15:29.003Z,10.58
2023-05-22T03:18:05.904Z,10.58
2023-05-22T03:20:39.482Z,10.59
2023-05-22T03:23:10.550Z,10.59
2023-05-22T03:25:41.369Z,10.59
2023-05-22T03:28:12.262Z,10.59
2023-05-22T03:30:44.883Z,10.61
2023-05-22T03:33:21.809Z,10.62
2023-05-22T03:35:56.797Z,10.58
2023-05-22T03:38:27.589Z,10.56
2023-05-22T03:40:58.765Z,10.55
2023-05-22T03:43:29.550Z,10.53
2023-05-22T03:46:01.578Z,10.54
2023-05-22T03:48:32.558Z,10.54
2023-05-22T03:51:06.240Z,10.55
2023-05-22T03:53:37.421Z,10.57
2023-05-22T03:56:08.709Z,10.62
2023-05-22T03:58:39.668Z,10.65
2023-05-22T04:01:11.673Z,10.69
2023-05-22T04:03:43.985Z,10.72
2023-05-22T04:06:17.961Z,10.75
2023-05-22T04:08:50.215Z,10.78
2023-05-22T04:11:22.509Z,10.81
2023-05-22T04:13:54.028Z,10.86
2023-05-22T04:16:24.877Z,10.91
2023-05-22T04:18:55.662Z,10.94
2023-05-22T04:21:29.196Z,11.00
2023-05-22T04:23:59.892Z,11.04
2023-05-22T04:26:33.459Z,11.07
2023-05-22T04:29:04.193Z,11.12
2023-05-22T04:31:35.531Z,11.17
2023-05-22T04:34:06.455Z,11.23
2023-05-22T04:36:39.859Z,11.30
2023-05-22T04:39:10.637Z,11.36
2023-05-22T04:41:41.982Z,11.45
2023-05-22T04:44:12.846Z,11.55
2023-05-22T04:46:44.223Z,11.64
2023-05-22T04:49:15.121Z,11.77
2023-05-22T04:51:48.835Z,11.92
2023-05-22T04:54:19.648Z,12.09
2023-05-22T04:56:50.628Z,12.25
2023-05-22T04:59:23.696Z,12.49
2023-05-22T05:01:54.609Z,12.71
2023-05-22T05:04:25.763Z,12.92
2023-05-22T05:07:02.752Z,13.15
2023-05-22T05:09:33.589Z,13.34
2023-05-22T05:12:06.265Z,13.56
2023-05-22T05:14:37.189Z,13.76
2023-05-22T05:17:08.698Z,13.96
2023-05-22T05:19:40.086Z,14.15
2023-05-22T05:22:13.728Z,14.37
2023-05-22T05:24:45.160Z,14.63
2023-05-22T05:27:16.119Z,14.93
2023-05-22T05:29:48.513Z,15.25
2023-05-22T05:32:31.053Z,15.65
2023-05-22T05:35:20.355Z,16.08
2023-05-22T05:37:58.617Z,16.50
2023-05-22T05:40:31.837Z,16.90
2023-05-22T05:43:02.698Z,17.29
2023-05-22T05:45:33.788Z,17.70
2023-05-22T05:48:05.614Z,18.08
2023-05-22T05:50:39.159Z,18.48
2023-05-22T05:53:13.431Z,18.91
2023-05-22T05:55:51.916Z,19.30
2023-05-22T05:58:24.016Z,19.73
2023-05-22T06:01:10.595Z,20.23
2023-05-22T06:03:42.189Z,20.50
2023-05-22T06:06:30.166Z,20.80
2023-05-22T06:09:15.837Z,21.16
2023-05-22T06:12:06.744Z,21.56
2023-05-22T06:14:37.789Z,21.94
2023-05-22T06:17:09.570Z,22.29
2023-05-22T06:19:43.032Z,22.56
2023-05-22T06:22:14.629Z,22.78
2023-05-22T06:24:50.530Z,22.97
2023-05-22T06:27:24.508Z,23.01
2023-05-22T06:29:56.486Z,22.89
2023-05-22T06:32:29.554Z,22.73
2023-05-22T06:35:00.613Z,22.75
2023-05-22T06:37:38.188Z,22.90
2023-05-22T06:40:16.305Z,23.05
2023-05-22T06:42:53.778Z,23.23
2023-05-22T06:45:24.593Z,23.50
2023-05-22T06:48:23.410Z,23.97
2023-05-22T06:51:15.461Z,24.48
2023-05-22T06:53:46.900Z,24.74
2023-05-22T06:56:25.723Z,24.85
2023-05-22T06:59:07.097Z,24.90
2023-05-22T07:02:00.747Z,24.87
2023-05-22T07:04:55.688Z,24.91
2023-05-22T07:07:42.942Z,24.96
2023-05-22T07:10:15.033Z,24.85
2023-05-22T07:12:48.362Z,24.64
2023-05-22T07:15:19.316Z,24.43
2023-05-22T07:17:55.371Z,24.19
2023-05-22T07:20:26.675Z,24.00
2023-05-22T07:23:10.183Z,23.79
2023-05-22T07:25:42.658Z,23.57
2023-05-22T07:28:17.249Z,23.36
2023-05-22T07:31:01.314Z,23.13
2023-05-22T07:33:33.368Z,22.97
2023-05-22T07:36:04.298Z,22.80
2023-05-22T07:38:35.312Z,22.68
2023-05-22T07:41:07.354Z,22.55
2023-05-22T07:43:41.543Z,22.47
2023-05-22T07:46:14.683Z,22.46
2023-05-22T07:48:58.052Z,22.45
2023-05-22T07:51:28.924Z,22.44
2023-05-22T07:56:56.457Z,22.68
2023-05-22T07:59:31.287Z,22.81
2023-05-22T08:02:03.141Z,23.05
2023-05-22T08:04:34.187Z,23.21
2023-05-22T08:07:04.945Z,23.30
2023-05-22T08:09:35.822Z,23.43
2023-05-22T08:12:07.723Z,23.62
2023-05-22T08:14:41.587Z,23.74
2023-05-22T08:17:12.642Z,23.75
2023-05-22T08:19:43.692Z,23.71
2023-05-22T08:22:14.450Z,23.78
2023-05-22T08:24:45.237Z,24.01
2023-05-22T08:27:16.021Z,24.30
2023-05-22T08:29:49.396Z,24.72
2023-05-22T08:32:20.182Z,25.15
2023-05-22T08:34:51.046Z,25.57
2023-05-22T08:37:21.938Z,25.90
2023-05-22T08:39:52.714Z,26.18
2023-05-22T08:42:23.636Z,26.39
2023-05-22T08:45:01.407Z,26.57
2023-05-22T08:47:39.841Z,26.75
2023-05-22T08:50:12.351Z,26.92
2023-05-22T08:52:54.609Z,27.11
2023-05-22T08:55:25.587Z,27.28
2023-05-22T08:57:58.144Z,27.45
2023-05-22T09:00:31.606Z,27.54
2023-05-22T09:03:03.118Z,27.57
2023-05-22T09:05:34.537Z,27.60
2023-05-22T09:08:18.968Z,27.63
2023-05-22T09:10:51.032Z,27.66
2023-05-22T09:13:30.724Z,27.64
2023-05-22T09:16:12.302Z,27.78
2023-05-22T09:18:44.432Z,28.03
2023-05-22T09:21:29.686Z,28.29
2023-05-22T09:24:03.983Z,28.58
2023-05-22T09:26:34.725Z,28.62
2023-05-22T09:29:05.541Z,28.57
2023-05-22T09:31:44.983Z,28.45
2023-05-22T09:34:18.363Z,28.33
2023-05-22T09:36:50.452Z,28.23
2023-05-22T09:39:21.389Z,28.11
2023-05-22T09:41:52.199Z,28.00
2023-05-22T09:44:23.220Z,28.02
2023-05-22T09:46:58.176Z,28.05
2023-05-22T09:49:29.024Z,28.08
2023-05-22T09:52:01.126Z,28.11
2023-05-22T09:54:37.549Z,28.05
2023-05-22T09:57:13.074Z,27.96
2023-05-22T09:59:47.142Z,28.00
2023-05-22T10:02:21.555Z,28.06
2023-05-22T10:04:53.285Z,28.12
2023-05-22T10:07:27.604Z,28.01
2023-05-22T10:10:07.715Z,27.85
2023-05-22T10:12:45.491Z,27.70
2023-05-22T10:15:16.727Z,27.58
2023-05-22T10:17:51.446Z,27.52
2023-05-22T10:20:23.198Z,27.43
2023-05-22T10:22:54.311Z,27.27
2023-05-22T10:25:26.240Z,27.08
2023-05-22T10:27:58.210Z,26.86
2023-05-22T10:30:37.302Z,26.68
2023-05-22T10:33:34.553Z,26.50
2023-05-22T10:36:10.966Z,26.50
2023-05-22T10:38:57.482Z,26.49
2023-05-22T10:41:31.478Z,26.54
2023-05-22T10:44:02.374Z,26.53
2023-05-22T10:46:37.036Z,26.39
2023-05-22T10:49:10.595Z,26.24
2023-05-22T10:51:41.759Z,26.23
2023-05-22T10:54:12.669Z,26.20
2023-05-22T10:56:43.600Z,26.14
2023-05-22T10:59:14.423Z,26.09
2023-05-22T11:01:45.520Z,26.14
2023-05-22T11:04:28.664Z,26.08
2023-05-22T11:07:08.099Z,26.09
2023-05-22T11:09:46.234Z,26.03
2023-05-22T11:12:19.787Z,25.89
2023-05-22T11:14:58.692Z,25.68
2023-05-22T11:17:31.420Z,25.48
2023-05-22T11:20:08.586Z,25.24
2023-05-22T11:22:42.138Z,25.04
2023-05-22T11:25:14.399Z,24.82
2023-05-22T11:27:45.585Z,24.64
2023-05-22T11:30:17.697Z,24.40
2023-05-22T11:32:49.363Z,24.15
2023-05-22T11:35:24.321Z,24.00
2023-05-22T11:37:55.706Z,23.90
2023-05-22T11:40:27.894Z,23.79
2023-05-22T11:42:59.392Z,23.73
2023-05-22T11:45:30.452Z,23.68
2023-05-22T11:48:01.289Z,23.60
2023-05-22T11:50:42.326Z,23.48
2023-05-22T11:53:13.990Z,23.35
2023-05-22T11:55:46.610Z,23.25
2023-05-22T11:58:20.125Z,23.18
2023-05-22T12:00:51.160Z,23.15
2023-05-22T12:03:23.015Z,23.12
2023-05-22T12:05:58.744Z,23.11
2023-05-22T12:08:29.864Z,23.10
2023-05-22T12:11:00.991Z,23.10
2023-05-22T12:13:33.278Z,23.12
2023-05-22T12:16:04.258Z,23.15
2023-05-22T12:18:39.887Z,23.18
2023-05-22T12:21:14.272Z,23.19
2023-05-22T12:23:52.350Z,23.19
2023-05-22T12:26:23.432Z,23.16
2023-05-22T12:28:56.808Z,23.14
2023-05-22T12:31:28.312Z,23.16
2023-05-22T12:33:59.888Z,23.23
2023-05-22T12:36:43.809Z,23.30
2023-05-22T12:39:15.704Z,23.37
2023-05-22T12:41:47.202Z,23.42
2023-05-22T12:44:19.396Z,23.42
2023-05-22T12:46:50.686Z,23.40
2023-05-22T12:49:21.747Z,23.47
2023-05-22T12:51:55.193Z,23.53
2023-05-22T12:54:26.192Z,23.62
2023-05-22T12:56:57.253Z,23.71
2023-05-22T12:59:28.302Z,23.69
2023-05-22T13:02:02.411Z,23.64
2023-05-22T13:04:33.625Z,23.57
2023-05-22T13:07:07.361Z,23.46
2023-05-22T13:09:39.080Z,23.36
2023-05-22T13:12:11.591Z,23.26
2023-05-22T13:14:42.603Z,23.11
2023-05-22T13:17:13.548Z,22.98
2023-05-22T13:19:44.467Z,22.86
2023-05-22T13:22:18.656Z,22.79
2023-05-22T13:24:49.849Z,22.69
2023-05-22T13:27:21.370Z,22.62
2023-05-22T13:29:52.550Z,22.61
2023-05-22T13:32:23.982Z,22.67
2023-05-22T13:34:54.937Z,22.74
2023-05-22T13:37:28.687Z,22.82
2023-05-22T13:39:59.871Z,22.88
2023-05-22T13:42:30.850Z,22.92
2023-05-22T13:45:04.147Z,22.91
2023-05-22T13:47:36.972Z,22.84
2023-05-22T13:50:08.826Z,22.67
2023-05-22T13:52:42.435Z,22.24
2023-05-22T13:55:14.066Z,21.66
2023-05-22T13:57:45.049Z,20.94
2023-05-22T14:00:17.984Z,20.20
2023-05-22T14:02:50.406Z,19.54
2023-05-22T14:05:21.457Z,19.00
2023-05-22T14:07:57.154Z,18.54
2023-05-22T14:10:28.111Z,18.23
2023-05-22T14:12:59.264Z,17.97
2023-05-22T14:15:30.281Z,17.70
2023-05-22T14:18:01.034Z,17.51
2023-05-22T14:20:32.100Z,17.28
2023-05-22T14:23:07.154Z,17.00
2023-05-22T14:25:38.228Z,16.82
2023-05-22T14:28:09.091Z,16.62
2023-05-22T14:30:41.079Z,16.44
2023-05-22T14:33:12.171Z,16.28
2023-05-22T14:35:43.204Z,16.14
2023-05-22T14:38:16.924Z,15.98
2023-05-22T14:40:47.754Z,15.86
2023-05-22T14:43:18.794Z,15.71
2023-05-22T14:45:49.663Z,15.60
2023-05-22T14:48:23.073Z,15.52
2023-05-22T14:50:53.971Z,15.46
2023-05-22T14:53:27.892Z,15.39
2023-05-22T14:55:58.778Z,15.34
2023-05-22T14:58:29.665Z,15.31
2023-05-22T15:01:00.561Z,15.33
2023-05-22T15:03:31.416Z,15.32
2023-05-22T15:06:02.315Z,15.35
2023-05-22T15:08:36.963Z,15.35
2023-05-22T15:11:08.000Z,15.38
2023-05-22T15:13:39.036Z,15.41
2023-05-22T15:16:12.172Z,15.41
2023-05-22T15:18:43.552Z,15.40
2023-05-22T15:21:14.612Z,15.36
2023-05-22T15:23:48.432Z,15.30
2023-05-22T15:26:19.452Z,15.28
2023-05-22T15:28:50.351Z,15.29
2023-05-22T15:31:21.408Z,15.34
2023-05-22T15:33:52.377Z,15.38
2023-05-22T15:36:23.522Z,15.35
2023-05-22T15:38:57.122Z,15.28
2023-05-22T15:41:27.929Z,15.21
2023-05-22T15:43:59.209Z,15.15
2023-05-22T15:46:29.959Z,15.11
2023-05-22T15:49:00.786Z,15.09
2023-05-22T15:51:33.111Z,15.08
2023-05-22T15:54:09.748Z,15.08
2023-05-22T15:56:40.684Z,15.09
2023-05-22T15:59:11.598Z,15.12
2023-05-22T16:01:42.407Z,15.14
2023-05-22T16:04:13.277Z,15.13
2023-05-22T16:06:44.094Z,15.14
2023-05-22T16:09:19.726Z,15.12
2023-05-22T16:11:50.712Z,15.14
2023-05-22T16:14:21.698Z,15.18
2023-05-22T16:16:52.617Z,15.21
2023-05-22T16:19:23.572Z,15.25
2023-05-22T16:21:54.437Z,15.28
2023-05-22T16:24:27.998Z,15.33
2023-05-22T16:27:01.018Z,15.32
2023-05-22T16:29:32.819Z,15.25
2023-05-22T16:32:04.073Z,15.17
2023-05-22T16:34:36.890Z,15.07
2023-05-22T16:37:09.276Z,15.01
2023-05-22T16:39:42.938Z,14.97
2023-05-22T16:42:13.825Z,14.94
2023-05-22T16:44:44.718Z,14.93
2023-05-22T16:47:15.627Z,14.96
2023-05-22T16:49:46.521Z,14.97
2023-05-22T16:52:18.355Z,15.02
2023-05-22T16:54:51.926Z,15.04
2023-05-22T16:57:22.889Z,15.08
2023-05-22T16:59:54.529Z,15.09
2023-05-22T17:02:26.725Z,15.12
2023-05-22T17:04:57.674Z,15.12
2023-05-22T17:07:28.566Z,15.15
2023-05-22T17:10:02.069Z,15.17
2023-05-22T17:12:36.266Z,15.18
2023-05-22T17:15:08.333Z,15.17
2023-05-22T17:17:39.538Z,15.17
2023-05-22T17:20:11.805Z,15.16
2023-05-22T17:22:42.583Z,15.13
2023-05-22T17:25:16.894Z,15.09
2023-05-22T17:27:47.803Z,15.07
2023-05-22T17:30:18.899Z,15.04
2023-05-22T17:32:50.456Z,15.02
2023-05-22T17:35:21.513Z,14.99
2023-05-22T17:37:52.604Z,14.94
2023-05-22T17:40:36.554Z,14.87
2023-05-22T17:43:15.564Z,14.93
2023-05-22T17:45:50.372Z,14.87
2023-05-22T17:48:24.021Z,14.83
2023-05-22T17:50:55.095Z,14.79
2023-05-22T17:53:26.823Z,14.77
2023-05-22T17:56:00.348Z,14.75
2023-05-22T17:58:31.529Z,14.72
2023-05-22T18:01:02.584Z,14.72
2023-05-22T18:03:34.394Z,14.71
2023-05-22T18:06:05.327Z,14.69
2023-05-22T18:08:36.211Z,14.71
2023-05-22T18:11:09.761Z,14.73
2023-05-22T18:13:40.497Z,14.74
2023-05-22T18:16:11.698Z,14.75
2023-05-22T18:18:42.576Z,14.75
2023-05-22T18:21:13.503Z,14.74
2023-05-22T18:23:44.330Z,14.74
2023-05-22T18:26:17.792Z,14.75
2023-05-22T18:28:48.731Z,14.75
2023-05-22T18:31:19.862Z,14.73
2023-05-22T18:33:50.725Z,14.70
2023-05-22T18:36:21.941Z,14.67
2023-05-22T18:38:52.760Z,14.64
2023-05-22T18:41:29.418Z,14.59
2023-05-22T18:44:00.205Z,14.56
2023-05-22T18:46:31.619Z,14.52
2023-05-22T18:49:02.436Z,14.47
2023-05-22T18:51:33.744Z,14.45
2023-05-22T18:54:04.575Z,14.40
2023-05-22T18:56:39.156Z,14.37
2023-05-22T18:59:10.119Z,14.31
2023-05-22T19:01:41.079Z,14.28
2023-05-22T19:04:12.148Z,14.23
2023-05-22T19:06:43.526Z,14.20
2023-05-22T19:09:14.651Z,14.17
2023-05-22T19:11:48.170Z,14.13
2023-05-22T19:14:19.033Z,14.05
2023-05-22T19:16:49.920Z,14.06
2023-05-22T19:19:20.944Z,14.02
2023-05-22T19:21:54.857Z,13.98
2023-05-22T19:24:25.864Z,13.94
2023-05-22T19:26:59.292Z,13.91
2023-05-22T19:29:30.384Z,13.88
2023-05-22T19:32:01.220Z,13.85
2023-05-22T19:34:32.116Z,13.82
2023-05-22T19:37:02.955Z,13.78
2023-05-22T19:39:33.898Z,13.74
2023-05-22T19:42:09.875Z,13.70
2023-05-22T19:44:40.721Z,13.67
2023-05-22T19:47:11.718Z,13.63
2023-05-22T19:49:42.603Z,13.60
2023-05-22T19:52:13.523Z,13.58
2023-05-22T19:54:44.365Z,13.53
2023-05-22T19:57:17.928Z,13.50
2023-05-22T19:59:48.988Z,13.46
2023-05-22T20:02:20.131Z,13.38
2023-05-22T20:04:52.333Z,13.40
2023-05-22T20:07:23.093Z,13.37
2023-05-22T20:09:53.862Z,13.35
2023-05-22T20:12:27.194Z,13.32
2023-05-22T20:14:58.837Z,13.28
2023-05-22T20:17:29.783Z,13.25
2023-05-22T20:20:01.647Z,13.23
2023-05-22T20:22:33.886Z,13.19
2023-05-22T20:25:05.477Z,13.14
2023-05-22T20:27:39.207Z,13.12
2023-05-22T20:30:11.888Z,13.10
2023-05-22T20:32:43.677Z,13.04
2023-05-22T20:35:14.651Z,13.02
2023-05-22T20:37:46.512Z,12.96
2023-05-22T20:40:17.964Z,12.94
2023-05-22T20:42:53.566Z,12.91
2023-05-22T20:45:24.409Z,12.88
2023-05-22T20:47:55.211Z,12.85
2023-05-22T20:50:26.243Z,12.81
2023-05-22T20:52:57.423Z,12.77
2023-05-22T20:55:28.156Z,12.73
2023-05-22T20:58:01.632Z,12.69
2023-05-22T21:00:32.499Z,12.66
2023-05-22T21:03:03.658Z,12.63
2023-05-22T21:05:34.535Z,12.60
2023-05-22T21:08:05.461Z,12.57
2023-05-22T21:10:36.294Z,12.54
2023-05-22T21:13:09.685Z,12.51
2023-05-22T21:15:40.597Z,12.48
2023-05-22T21:18:12.353Z,12.43
2023-05-22T21:20:43.531Z,12.40
2023-05-22T21:23:14.643Z,12.34
2023-05-22T21:25:45.516Z,12.29
2023-05-22T21:28:18.907Z,12.26
2023-05-22T21:30:49.700Z,12.22
2023-05-22T21:33:20.944Z,12.21
2023-05-22T21:35:51.722Z,12.15
2023-05-22T21:38:22.587Z,12.12
2023-05-22T21:40:53.363Z,12.10
2023-05-22T21:43:26.923Z,12.08
2023-05-22T21:45:57.809Z,12.05
2023-05-22T21:48:28.685Z,12.04
2023-05-22T21:50:59.432Z,12.03
2023-05-22T21:53:30.347Z,12.02
2023-05-22T21:56:01.142Z,11.99
2023-05-22T21:58:34.675Z,11.96
2023-05-22T22:01:05.427Z,11.94
2023-05-22T22:03:36.297Z,11.92
2023-05-22T22:06:07.541Z,11.89
2023-05-22T22:08:38.343Z,11.86
2023-05-22T22:11:09.235Z,11.83
2023-05-22T22:13:42.751Z,11.82
2023-05-22T22:16:13.624Z,11.76
2023-05-22T22:18:44.524Z,11.76
2023-05-22T22:21:15.808Z,11.74
2023-05-22T22:23:46.564Z,11.72
2023-05-22T22:26:17.475Z,11.69
2023-05-22T22:28:50.973Z,11.67
2023-05-22T22:31:22.049Z,11.63
2023-05-22T22:33:52.872Z,11.61
2023-05-22T22:36:23.694Z,11.60
2023-05-22T22:38:54.740Z,11.57
2023-05-22T22:41:25.752Z,11.57
2023-05-22T22:43:59.199Z,11.55
2023-05-22T22:46:29.985Z,11.55
2023-05-22T22:49:02.111Z,11.52
2023-05-22T22:51:33.281Z,11.51
2023-05-22T22:54:04.161Z,11.49
2023-05-22T22:56:35.065Z,11.48
2023-05-22T22:59:08.664Z,11.46
2023-05-22T23:01:39.374Z,11.44
2023-05-22T23:04:10.329Z,11.42
2023-05-22T23:06:42.137Z,11.39
2023-05-22T23:09:13.092Z,11.34
2023-05-22T23:11:43.894Z,11.31
2023-05-22T23:14:18.151Z,11.27
2023-05-22T23:16:49.062Z,11.22
2023-05-22T23:19:20.080Z,11.19
2023-05-22T23:21:52.190Z,11.18
2023-05-22T23:24:22.990Z,11.16
2023-05-22T23:26:53.748Z,11.15
2023-05-22T23:29:27.303Z,11.13
2023-05-22T23:31:58.167Z,11.13
2023-05-22T23:34:29.102Z,11.10
2023-05-22T23:36:59.845Z,11.09
2023-05-22T23:39:30.853Z,11.07
2023-05-22T23:42:02.460Z,11.05
2023-05-22T23:44:36.048Z,11.03
2023-05-22T23:47:07.181Z,11.02
2023-05-22T23:49:38.085Z,11.00
2023-05-22T23:52:09.380Z,10.96
2023-05-22T23:54:40.168Z,10.95
2023-05-22T23:57:11.247Z,10.95
2023-05-22T23:59:46.801Z,10.94
